Strona główna
METAR-TAF:

METAR-TAF

Lotnisko :

Port lotniczy Sanya-Phoenix

Sanya, Chiny

Szerokość geograficzna: 18-18N, Długość geograficzna: 109-24E, wysokość: 27 m

Aktualna obserwacja pogody

Raport powstał 1 godzina i 3 minut temu, godzina 15:00 UTC
Wiatr 8 kt od wschód
Temperatura 20°C
Wilgotność 83%
Ciśnienie 1014 hPa
Widzialność 10 km lub więcej
Przerywane chmury na wysokości 4000 ft

METAR: ZJSY 261500Z 10004MPS 9999 BKN040 20/17 Q1014 NOSIG

czas: 00:03 (16:03 UTC)

Prognoza

Raport powstał 6 godziny i 56 minut temu, godzina 09:07 UTC
Prognoza ważna od 26 godzina 12 UTC do 27 godzina 12 UTC
Wiatr 8 kt od wschód
Widzialność 10 km lub więcej
Mało chmury na wysokości 2000 ft
Przerywane chmury na wysokości 5000 ft

TAF: ZJSY 260907Z 2612/2712 09004MPS 9999 FEW020 BKN050 TX26/2706Z TN18/2621Z

Obserwacja i prognoza pogody dla ponad 4000 lotnisk (raport METAR i TAF).

Dostępne stacje oznaczono żółtymi i czerwonymi punktami na mapie.

Najedź kursorem aby zobaczyć nazwę stacji.

Kliknij aby zobaczyć obserwacje i prognozy pogody.

Aby zmienić mapę: kliknij na zielony przycisk z czarnym krzyżykiem, aby powiększyć; na zielony przycisk z myślnikiem, aby pomniejszyć; na zielone strzałki, aby przejść do map sąsiednich.


METAR-TAF: